createdAt,value
2022-09-09T00:02:25.027Z,4.43
2022-09-09T00:05:14.375Z,5.17
2022-09-09T00:07:52.866Z,4.57
2022-09-09T00:10:47.668Z,4.57
2022-09-09T00:13:35.176Z,4.67
2022-09-09T00:16:23.507Z,4.90
2022-09-09T00:19:22.357Z,5.27
2022-09-09T00:21:56.694Z,4.50
2022-09-09T00:24:42.868Z,4.80
2022-09-09T00:27:50.198Z,5.20
2022-09-09T00:30:23.954Z,4.80
2022-09-09T00:32:59.249Z,4.97
2022-09-09T00:35:42.458Z,4.80
2022-09-09T00:38:16.913Z,5.20
2022-09-09T00:41:19.814Z,5.57
2022-09-09T00:44:22.517Z,5.80
2022-09-09T00:46:57.522Z,5.90
2022-09-09T00:49:49.571Z,5.40
2022-09-09T00:52:44.883Z,5.63
2022-09-09T00:55:28.936Z,6.67
2022-09-09T00:57:56.977Z,7.20
2022-09-09T01:00:28.118Z,7.73
2022-09-09T01:03:03.605Z,7.87
2022-09-09T01:05:53.678Z,7.07
2022-09-09T01:08:53.279Z,7.30
2022-09-09T01:11:27.129Z,7.33
2022-09-09T01:14:05.227Z,7.37
2022-09-09T01:16:33.585Z,5.83
2022-09-09T01:19:02.459Z,5.63
2022-09-09T01:22:20.117Z,6.33
2022-09-09T01:25:11.684Z,5.50
2022-09-09T01:27:41.196Z,5.70
2022-09-09T01:30:18.661Z,6.03
2022-09-09T01:32:54.265Z,5.10
2022-09-09T01:35:45.902Z,5.50
2022-09-09T01:38:13.317Z,6.00
2022-09-09T01:40:40.462Z,5.73
2022-09-09T01:43:08.477Z,5.23
2022-09-09T01:45:35.852Z,4.47
2022-09-09T01:48:04.094Z,3.87
2022-09-09T01:50:31.356Z,3.70
2022-09-09T01:53:00.316Z,3.53
2022-09-09T01:55:43.189Z,2.97
2022-09-09T01:58:34.840Z,3.23
2022-09-09T02:01:14.725Z,2.80
2022-09-09T02:03:45.631Z,2.37
2022-09-09T02:06:28.654Z,2.47
2022-09-09T02:08:58.586Z,2.10
2022-09-09T02:11:28.210Z,2.33
2022-09-09T02:14:02.834Z,2.70
2022-09-09T02:16:40.237Z,2.30
2022-09-09T02:19:15.020Z,2.83
2022-09-09T02:21:45.147Z,2.40
2022-09-09T02:24:15.522Z,2.37
2022-09-09T02:26:45.116Z,2.73
2022-09-09T02:29:22.223Z,2.50
2022-09-09T02:31:52.329Z,3.03
2022-09-09T02:34:21.896Z,3.13
2022-09-09T02:36:51.390Z,3.27
2022-09-09T02:39:18.457Z,3.40
2022-09-09T02:41:45.543Z,3.73
2022-09-09T02:44:20.428Z,3.10
2022-09-09T02:47:02.542Z,3.70
2022-09-09T02:49:52.442Z,3.80
2022-09-09T02:52:31.769Z,3.70
2022-09-09T02:55:05.868Z,4.00
2022-09-09T02:57:35.678Z,3.70
2022-09-09T03:00:07.380Z,3.83
2022-09-09T03:02:37.254Z,3.80
2022-09-09T03:05:04.884Z,4.37
2022-09-09T03:07:31.970Z,4.47
2022-09-09T03:09:59.765Z,4.10
2022-09-09T03:12:38.968Z,5.20
2022-09-09T03:15:07.460Z,5.73
2022-09-09T03:17:35.355Z,5.67
2022-09-09T03:20:04.418Z,6.57
2022-09-09T03:22:31.435Z,7.60
2022-09-09T03:24:58.441Z,7.20
2022-09-09T03:27:25.498Z,7.70
2022-09-09T03:29:53.172Z,8.07
2022-09-09T03:32:20.275Z,8.27
2022-09-09T03:34:48.559Z,8.27
2022-09-09T03:37:15.421Z,8.97
2022-09-09T03:39:42.305Z,9.17
2022-09-09T03:42:09.442Z,9.67
2022-09-09T03:44:36.458Z,10.50
2022-09-09T03:47:03.327Z,9.73
2022-09-09T03:49:30.246Z,9.40
2022-09-09T03:51:58.235Z,10.63
2022-09-09T03:54:26.234Z,10.03
2022-09-09T03:56:53.182Z,9.80
2022-09-09T03:59:20.216Z,10.13
2022-09-09T04:01:48.207Z,10.50
2022-09-09T04:04:15.222Z,10.93
2022-09-09T04:06:53.499Z,10.50
2022-09-09T04:09:20.585Z,10.63
2022-09-09T04:11:47.480Z,10.07
2022-09-09T04:14:14.375Z,10.20
2022-09-09T04:16:44.230Z,10.17
2022-09-09T04:19:14.677Z,9.53
2022-09-09T04:21:46.005Z,9.90
2022-09-09T04:24:12.853Z,9.30
2022-09-09T04:26:39.982Z,8.57
2022-09-09T04:29:08.679Z,9.03
2022-09-09T04:31:36.182Z,8.67
2022-09-09T04:34:45.277Z,8.50
2022-09-09T04:37:12.192Z,9.10
2022-09-09T04:39:39.218Z,9.67
2022-09-09T04:42:06.373Z,9.33
2022-09-09T04:44:33.483Z,8.97
2022-09-09T04:47:00.682Z,8.23
2022-09-09T04:49:27.777Z,8.20
2022-09-09T05:00:35.847Z,8.70
2022-09-09T05:03:10.006Z,7.93
2022-09-09T05:05:58.304Z,8.00
2022-09-09T05:08:25.328Z,8.40
2022-09-09T05:10:52.277Z,7.50
2022-09-09T05:13:19.229Z,7.63
2022-09-09T05:15:55.960Z,7.30
2022-09-09T05:18:23.402Z,7.47
2022-09-09T05:20:52.245Z,8.10
2022-09-09T05:23:19.458Z,7.00
2022-09-09T05:25:56.651Z,7.00
2022-09-09T05:28:25.775Z,6.47
2022-09-09T05:31:09.273Z,7.10
2022-09-09T05:33:37.147Z,6.13
2022-09-09T05:36:06.755Z,6.60
2022-09-09T05:38:40.443Z,6.70
2022-09-09T05:41:12.979Z,6.23
2022-09-09T05:43:40.575Z,5.83
2022-09-09T05:46:29.020Z,6.10
2022-09-09T05:49:02.579Z,6.20
2022-09-09T05:51:33.309Z,6.13
2022-09-09T05:54:00.308Z,6.03
2022-09-09T05:56:29.486Z,5.60
2022-09-09T05:58:57.324Z,5.53
2022-09-09T06:01:33.116Z,5.90
2022-09-09T06:04:00.395Z,5.17
2022-09-09T06:06:31.683Z,5.57
2022-09-09T06:08:59.574Z,5.53
2022-09-09T06:11:30.635Z,6.27
2022-09-09T06:13:58.215Z,5.53
2022-09-09T06:16:27.520Z,6.03
2022-09-09T06:18:58.945Z,6.03
2022-09-09T06:21:34.525Z,5.23
2022-09-09T06:24:02.086Z,6.03
2022-09-09T06:26:34.048Z,5.27
2022-09-09T06:29:05.003Z,5.83
2022-09-09T06:31:35.501Z,5.90
2022-09-09T06:34:03.154Z,5.83
2022-09-09T06:36:32.745Z,5.77
2022-09-09T06:39:00.226Z,6.17
2022-09-09T06:41:29.638Z,5.07
2022-09-09T06:43:57.204Z,5.47
2022-09-09T06:46:29.629Z,4.60
2022-09-09T06:48:58.436Z,4.50
2022-09-09T06:51:26.982Z,4.47
2022-09-09T06:53:59.422Z,4.80
2022-09-09T06:56:31.853Z,4.33
2022-09-09T06:59:04.795Z,4.60
2022-09-09T07:01:34.599Z,4.37
2022-09-09T07:04:02.993Z,4.60
2022-09-09T07:06:33.444Z,4.07
2022-09-09T07:09:09.469Z,4.00
2022-09-09T07:11:43.838Z,4.60
2022-09-09T07:14:15.128Z,4.23
2022-09-09T07:16:43.877Z,4.00
2022-09-09T07:19:12.538Z,4.40
2022-09-09T07:21:41.415Z,4.27
2022-09-09T07:24:11.266Z,3.83
2022-09-09T07:26:41.564Z,4.80
2022-09-09T07:29:10.046Z,4.10
2022-09-09T07:31:40.972Z,3.97
2022-09-09T07:34:08.403Z,4.07
2022-09-09T07:36:38.910Z,3.93
2022-09-09T07:39:09.088Z,4.03
2022-09-09T07:41:39.657Z,3.47
2022-09-09T07:44:18.570Z,3.43
2022-09-09T07:46:46.695Z,3.67
2022-09-09T07:49:13.793Z,3.73
2022-09-09T07:51:43.458Z,2.93
2022-09-09T07:54:13.109Z,3.30
2022-09-09T07:56:41.640Z,3.00
2022-09-09T07:59:09.809Z,3.30
2022-09-09T08:01:42.627Z,3.37
2022-09-09T08:04:16.181Z,3.20
2022-09-09T08:06:45.993Z,2.83
2022-09-09T08:09:12.989Z,3.10
2022-09-09T08:11:41.191Z,3.40
2022-09-09T08:14:10.325Z,3.40
2022-09-09T08:16:40.036Z,3.30
2022-09-09T08:19:08.451Z,2.93
2022-09-09T08:21:37.777Z,2.83
2022-09-09T08:24:09.016Z,2.80
2022-09-09T08:26:44.092Z,3.23
2022-09-09T08:29:12.762Z,3.07
2022-09-09T08:31:48.003Z,3.10
2022-09-09T08:34:28.470Z,2.87
2022-09-09T08:36:55.889Z,2.67
2022-09-09T08:39:23.994Z,2.87
2022-09-09T08:41:57.102Z,2.77
2022-09-09T08:44:37.090Z,3.30
2022-09-09T08:47:14.102Z,3.43
2022-09-09T08:49:50.834Z,3.07
2022-09-09T08:52:23.957Z,3.60
2022-09-09T08:54:52.902Z,3.97
2022-09-09T08:57:27.868Z,2.93
2022-09-09T08:59:57.745Z,3.30
2022-09-09T09:02:38.306Z,3.10
2022-09-09T09:05:20.174Z,3.20
2022-09-09T09:07:56.302Z,3.40
2022-09-09T09:10:40.627Z,3.57
2022-09-09T09:13:28.668Z,3.80
2022-09-09T09:16:00.750Z,4.33
2022-09-09T09:18:28.157Z,3.90
2022-09-09T09:21:19.887Z,3.70
2022-09-09T09:24:13.565Z,4.50
2022-09-09T09:26:40.789Z,4.20
2022-09-09T09:29:21.072Z,4.27
2022-09-09T09:31:53.474Z,3.90
2022-09-09T09:34:20.389Z,3.93
2022-09-09T09:36:58.173Z,3.20
2022-09-09T09:42:23.078Z,2.70
2022-09-09T09:44:50.868Z,2.63
2022-09-09T09:47:23.255Z,2.60
2022-09-09T09:50:00.907Z,2.87
2022-09-09T09:52:30.436Z,2.97
2022-09-09T09:55:04.043Z,2.83
2022-09-09T09:57:35.516Z,2.85
2022-09-09T10:00:23.336Z,2.37
2022-09-09T10:02:53.025Z,2.30
2022-09-09T10:05:31.562Z,2.20
2022-09-09T10:08:17.749Z,2.37
2022-09-09T10:10:50.863Z,2.00
2022-09-09T10:13:29.753Z,2.30
2022-09-09T10:16:49.511Z,2.30
2022-09-09T10:19:28.751Z,2.23
2022-09-09T10:22:02.238Z,2.60
2022-09-09T10:24:38.080Z,2.07
2022-09-09T10:27:34.922Z,2.30
2022-09-09T10:30:17.750Z,2.23
2022-09-09T10:33:08.026Z,2.00
2022-09-09T10:35:45.218Z,2.03
2022-09-09T10:38:21.705Z,2.20
2022-09-09T10:40:54.362Z,2.67
2022-09-09T10:43:40.407Z,1.90
2022-09-09T10:46:35.330Z,2.00
2022-09-09T10:49:19.405Z,2.00
2022-09-09T10:52:27.136Z,1.70
2022-09-09T10:54:59.443Z,2.27
2022-09-09T10:57:49.967Z,1.60
2022-09-09T11:00:25.503Z,1.93
2022-09-09T11:03:23.629Z,1.70
2022-09-09T11:06:02.584Z,1.70
2022-09-09T11:08:31.293Z,1.50
2022-09-09T11:11:04.676Z,1.90
2022-09-09T11:13:52.836Z,1.80
2022-09-09T11:19:33.162Z,1.50
2022-09-09T11:22:03.618Z,1.92
2022-09-09T11:24:45.660Z,1.73
2022-09-09T11:27:15.186Z,1.50
2022-09-09T11:30:01.952Z,1.83
2022-09-09T11:32:37.509Z,2.15
2022-09-09T11:35:28.831Z,1.63
2022-09-09T11:38:25.165Z,1.67
2022-09-09T11:41:07.655Z,1.40
2022-09-09T11:43:42.016Z,1.40
2022-09-09T11:46:10.623Z,1.77
2022-09-09T11:48:37.848Z,2.22
2022-09-09T11:51:16.624Z,1.67
2022-09-09T11:54:02.601Z,1.60
2022-09-09T11:56:32.159Z,1.40
2022-09-09T11:59:04.121Z,1.67
2022-09-09T12:01:36.301Z,1.80
2022-09-09T12:04:11.395Z,1.50
2022-09-09T12:06:51.915Z,1.70
2022-09-09T12:09:46.125Z,1.60
2022-09-09T12:12:13.106Z,1.40
2022-09-09T12:14:55.937Z,1.43
2022-09-09T12:17:27.971Z,1.70
2022-09-09T12:20:22.559Z,1.67
2022-09-09T12:23:04.387Z,1.95
2022-09-09T12:25:54.633Z,1.77
2022-09-09T12:28:33.222Z,1.70
2022-09-09T12:31:20.371Z,1.58
2022-09-09T12:33:48.635Z,2.35
2022-09-09T12:36:22.787Z,1.40
2022-09-09T12:38:51.743Z,1.73
2022-09-09T12:41:24.610Z,2.00
2022-09-09T12:43:52.437Z,1.47
2022-09-09T12:46:47.638Z,2.20
2022-09-09T12:49:27.322Z,2.43
2022-09-09T12:51:54.902Z,2.00
2022-09-09T12:54:22.745Z,2.20
2022-09-09T12:56:51.162Z,2.30
2022-09-09T12:59:28.106Z,2.33
2022-09-09T13:02:01.035Z,1.90
2022-09-09T13:04:28.057Z,2.03
2022-09-09T13:06:56.634Z,1.93
2022-09-09T13:09:23.665Z,1.93
2022-09-09T13:11:57.485Z,1.70
2022-09-09T13:14:34.031Z,1.70
2022-09-09T13:17:02.802Z,2.00
2022-09-09T13:19:36.371Z,1.33
2022-09-09T13:22:14.360Z,1.40
2022-09-09T13:24:41.413Z,1.88
2022-09-09T13:27:30.259Z,1.70
2022-09-09T13:29:57.874Z,1.77
2022-09-09T13:32:27.992Z,1.70
2022-09-09T13:35:00.488Z,1.40
2022-09-09T13:37:31.170Z,1.57
2022-09-09T13:39:59.079Z,1.53
2022-09-09T13:42:32.537Z,1.20
2022-09-09T13:45:01.217Z,1.50
2022-09-09T13:47:37.057Z,1.43
2022-09-09T13:50:25.023Z,1.33
2022-09-09T13:52:54.434Z,1.30
2022-09-09T13:55:23.977Z,1.67
2022-09-09T13:58:02.422Z,2.13
2022-09-09T14:00:34.806Z,1.80
2022-09-09T14:03:04.860Z,1.63
2022-09-09T14:05:33.787Z,1.50
2022-09-09T14:08:03.839Z,1.70
2022-09-09T14:10:31.555Z,1.57
2022-09-09T14:12:58.447Z,1.60
2022-09-09T14:15:25.590Z,1.10
2022-09-09T14:17:53.293Z,1.50
2022-09-09T14:20:20.590Z,1.30
2022-09-09T14:22:47.880Z,1.40
2022-09-09T14:25:15.559Z,1.60
2022-09-09T14:27:43.488Z,1.60
2022-09-09T14:30:11.210Z,1.80
2022-09-09T14:32:38.221Z,2.17
2022-09-09T14:35:05.849Z,2.20
2022-09-09T14:37:33.914Z,1.90
2022-09-09T14:40:02.927Z,2.17
2022-09-09T14:42:31.409Z,2.40
2022-09-09T14:44:58.592Z,2.50
2022-09-09T14:47:25.832Z,2.33
2022-09-09T14:49:52.881Z,3.00
2022-09-09T14:52:20.062Z,2.87
2022-09-09T14:54:47.479Z,2.67
2022-09-09T14:57:14.926Z,3.10
2022-09-09T14:59:41.849Z,3.17
2022-09-09T15:02:10.284Z,2.87
2022-09-09T15:04:37.358Z,2.90
2022-09-09T15:07:04.426Z,2.80
2022-09-09T15:09:32.076Z,2.57
2022-09-09T15:11:59.114Z,2.87
2022-09-09T15:14:27.310Z,2.33
2022-09-09T15:16:54.500Z,2.40
2022-09-09T15:19:21.634Z,2.23
2022-09-09T15:21:49.206Z,2.40
2022-09-09T15:24:19.068Z,1.90
2022-09-09T15:26:46.025Z,2.23
2022-09-09T15:29:13.126Z,2.30
2022-09-09T15:31:40.184Z,2.10
2022-09-09T15:34:08.902Z,2.10
2022-09-09T15:36:49.333Z,1.70
2022-09-09T15:39:18.794Z,1.80
2022-09-09T15:41:48.237Z,1.83
2022-09-09T15:44:17.178Z,1.90
2022-09-09T15:46:55.213Z,1.50
2022-09-09T15:49:27.087Z,2.00
2022-09-09T15:51:56.594Z,1.90
2022-09-09T15:54:25.208Z,2.00
2022-09-09T15:56:57.858Z,1.80
2022-09-09T15:59:26.749Z,1.63
2022-09-09T16:01:53.928Z,1.80
2022-09-09T16:04:24.570Z,1.87
2022-09-09T16:07:02.303Z,1.50
2022-09-09T16:09:30.207Z,1.83
2022-09-09T16:11:59.975Z,1.20
2022-09-09T16:14:27.077Z,1.50
2022-09-09T16:16:54.450Z,1.70
2022-09-09T16:19:21.713Z,1.27
2022-09-09T16:21:50.482Z,1.50
2022-09-09T16:24:20.845Z,1.20
2022-09-09T16:26:51.912Z,1.30
2022-09-09T16:29:20.059Z,1.40
2022-09-09T16:31:49.149Z,1.70
2022-09-09T16:34:19.063Z,1.47
2022-09-09T16:36:46.808Z,1.10
2022-09-09T16:39:18.343Z,1.63
2022-09-09T16:41:46.676Z,1.43
2022-09-09T16:44:16.984Z,1.53
2022-09-09T16:46:45.398Z,1.50
2022-09-09T16:49:14.401Z,2.07
2022-09-09T16:51:48.029Z,1.50
2022-09-09T16:54:17.351Z,1.70
2022-09-09T16:56:47.585Z,1.40
2022-09-09T16:59:19.880Z,1.70
2022-09-09T17:01:50.230Z,1.50
2022-09-09T17:04:25.269Z,1.60
2022-09-09T17:06:54.606Z,1.73
2022-09-09T17:12:04.539Z,1.80
2022-09-09T17:14:32.320Z,1.87
2022-09-09T17:17:09.378Z,1.77
2022-09-09T17:19:46.534Z,1.73
2022-09-09T17:22:17.323Z,1.70
2022-09-09T17:24:45.881Z,1.47
2022-09-09T17:27:14.156Z,1.50
2022-09-09T17:29:41.415Z,1.70
2022-09-09T17:32:08.518Z,1.50
2022-09-09T17:34:36.546Z,1.47
2022-09-09T17:37:07.161Z,1.30
2022-09-09T17:39:34.599Z,1.50
2022-09-09T17:42:01.732Z,1.47
2022-09-09T17:44:33.446Z,1.40
2022-09-09T17:47:02.152Z,1.10
2022-09-09T17:49:29.894Z,1.27
2022-09-09T17:51:57.391Z,1.20
2022-09-09T17:54:24.481Z,1.20
2022-09-09T17:56:51.831Z,1.53
2022-09-09T17:59:19.752Z,1.20
2022-09-09T18:01:49.845Z,1.13
2022-09-09T18:04:17.748Z,1.20
2022-09-09T18:06:47.371Z,1.23
2022-09-09T18:09:17.509Z,1.43
2022-09-09T18:11:47.841Z,1.67
2022-09-09T18:14:21.082Z,1.50
2022-09-09T18:25:17.441Z,1.80
2022-09-09T18:27:45.477Z,2.17
2022-09-09T18:30:13.542Z,1.90
2022-09-09T18:32:45.933Z,1.73
2022-09-09T18:35:13.100Z,2.23
2022-09-09T18:37:40.353Z,2.40
2022-09-09T18:40:09.641Z,2.33
2022-09-09T18:42:37.106Z,2.20
2022-09-09T18:45:06.102Z,2.40
2022-09-09T18:47:33.308Z,2.20
2022-09-09T18:50:00.705Z,2.20
2022-09-09T19:03:32.752Z,2.70
2022-09-09T19:06:10.237Z,2.83
2022-09-09T19:08:39.587Z,2.43
2022-09-09T19:11:09.051Z,2.90
2022-09-09T19:13:37.678Z,3.03
2022-09-09T19:16:20.830Z,3.33
2022-09-09T19:24:25.293Z,3.10
2022-09-09T19:26:55.102Z,3.23
2022-09-09T19:29:27.781Z,2.40
2022-09-09T19:34:44.818Z,2.83
2022-09-09T19:37:16.351Z,2.73
2022-09-09T19:39:49.832Z,2.73
2022-09-09T19:42:17.082Z,2.50
2022-09-09T19:44:44.212Z,2.90
2022-09-09T19:47:11.451Z,2.63
2022-09-09T19:49:38.739Z,2.83
2022-09-09T19:52:05.818Z,3.23
2022-09-09T19:57:36.917Z,3.77
2022-09-09T20:00:05.310Z,3.60
2022-09-09T20:02:32.188Z,4.10
2022-09-09T20:04:59.640Z,4.23
2022-09-09T20:07:26.545Z,4.67
2022-09-09T20:09:54.918Z,4.37
2022-09-09T20:12:22.419Z,5.13
2022-09-09T20:14:49.367Z,4.83
2022-09-09T20:17:19.290Z,4.90
2022-09-09T20:19:46.440Z,5.33
2022-09-09T20:22:13.407Z,5.63
2022-09-09T20:24:40.433Z,5.60
2022-09-09T20:27:07.505Z,6.23
2022-09-09T20:29:34.353Z,5.70
2022-09-09T20:32:01.394Z,5.73
2022-09-09T20:34:29.800Z,6.27
2022-09-09T20:36:57.993Z,6.50
2022-09-09T20:39:25.644Z,6.43
2022-09-09T20:41:52.817Z,5.63
2022-09-09T20:44:24.273Z,6.23
2022-09-09T20:46:55.601Z,6.00
2022-09-09T20:49:24.453Z,6.13
2022-09-09T20:52:08.281Z,5.93
2022-09-09T20:54:36.083Z,6.33
2022-09-09T20:57:03.327Z,6.10
2022-09-09T20:59:31.351Z,6.10
2022-09-09T21:01:59.465Z,5.60
2022-09-09T21:04:29.461Z,6.23
2022-09-09T21:07:07.602Z,5.47
2022-09-09T21:09:35.967Z,5.50
2022-09-09T21:12:03.108Z,5.20
2022-09-09T21:14:29.946Z,5.30
2022-09-09T21:16:56.892Z,5.13
2022-09-09T21:19:24.281Z,5.30
2022-09-09T21:21:51.785Z,5.90
2022-09-09T21:24:18.869Z,6.10
2022-09-09T21:26:45.909Z,6.37
2022-09-09T21:29:13.384Z,6.70
2022-09-09T21:31:40.525Z,7.23
2022-09-09T21:34:08.448Z,6.63
2022-09-09T21:36:36.100Z,6.87
2022-09-09T21:39:06.524Z,8.03
2022-09-09T21:41:59.513Z,8.90
2022-09-09T21:44:27.333Z,9.40
2022-09-09T21:46:54.248Z,10.80
2022-09-09T21:49:21.999Z,10.47
2022-09-09T21:51:49.294Z,11.07
2022-09-09T21:54:16.478Z,11.87
2022-09-09T21:56:43.835Z,12.33
2022-09-09T21:59:12.256Z,13.07
2022-09-09T22:01:41.660Z,13.17
2022-09-09T22:04:08.918Z,13.20
2022-09-09T22:06:36.547Z,13.77
2022-09-09T22:09:06.275Z,13.30
2022-09-09T22:11:34.000Z,14.53
2022-09-09T22:14:02.359Z,13.00
2022-09-09T22:16:29.835Z,13.13
2022-09-09T22:18:59.362Z,13.23
2022-09-09T22:21:28.736Z,13.97
2022-09-09T22:24:19.183Z,13.87
2022-09-09T22:27:04.969Z,14.03
2022-09-09T22:29:44.183Z,13.50
2022-09-09T22:32:11.343Z,13.13
2022-09-09T22:34:38.796Z,13.17
2022-09-09T22:37:06.761Z,13.67
2022-09-09T22:39:34.754Z,12.90
2022-09-09T22:42:01.951Z,13.20
2022-09-09T22:44:30.133Z,14.23
2022-09-09T22:47:01.961Z,13.87
2022-09-09T22:49:29.348Z,14.17
2022-09-09T22:51:59.793Z,14.27
2022-09-09T22:54:27.144Z,14.77
2022-09-09T22:56:59.831Z,15.07
2022-09-09T22:59:26.809Z,14.40
2022-09-09T23:01:53.911Z,16.23
2022-09-09T23:04:23.063Z,14.47
2022-09-09T23:06:50.426Z,14.83
2022-09-09T23:09:18.366Z,14.73
2022-09-09T23:11:52.527Z,15.87
2022-09-09T23:14:21.671Z,16.20
2022-09-09T23:16:52.078Z,17.23
2022-09-09T23:19:19.657Z,18.00
2022-09-09T23:21:47.475Z,16.57
2022-09-09T23:24:37.461Z,17.83
2022-09-09T23:27:04.710Z,17.87
2022-09-09T23:29:31.718Z,19.40
2022-09-09T23:31:58.945Z,18.53
2022-09-09T23:34:27.251Z,20.87
2022-09-09T23:36:54.448Z,20.23
2022-09-09T23:39:35.975Z,20.83
2022-09-09T23:44:44.708Z,22.07
2022-09-09T23:47:14.452Z,23.03
2022-09-09T23:49:41.832Z,22.83
2022-09-09T23:52:09.004Z,21.67
2022-09-09T23:54:36.765Z,22.63
2022-09-09T23:57:04.366Z,21.87
2022-09-09T23:59:32.195Z,21.03
